createdAt,value
2023-02-08T00:02:19.343Z,100205.28
2023-02-08T00:04:51.613Z,100201.97
2023-02-08T00:07:20.603Z,100207.94
2023-02-08T00:09:51.238Z,100207.97
2023-02-08T00:12:20.781Z,100204.38
2023-02-08T00:14:51.190Z,100204.38
2023-02-08T00:17:21.277Z,100209.66
2023-02-08T00:19:52.069Z,100203.84
2023-02-08T00:22:21.717Z,100204.78
2023-02-08T00:24:53.190Z,100209.19
2023-02-08T00:27:24.352Z,100200.56
2023-02-08T00:29:53.744Z,100200.63
2023-02-08T00:32:23.821Z,100200.63
2023-02-08T00:34:55.206Z,100199.91
2023-02-08T00:37:24.658Z,100198.00
2023-02-08T00:39:55.142Z,100201.75
2023-02-08T00:42:24.488Z,100206.75
2023-02-08T00:44:54.371Z,100207.72
2023-02-08T00:47:23.538Z,100200.78
2023-02-08T00:49:53.796Z,100204.25
2023-02-08T00:52:23.594Z,100197.72
2023-02-08T00:54:53.057Z,100199.00
2023-02-08T00:57:23.548Z,100200.50
2023-02-08T00:59:54.434Z,100213.97
2023-02-08T01:02:25.449Z,100205.75
2023-02-08T01:04:56.228Z,100206.06
2023-02-08T01:07:25.798Z,100212.09
2023-02-08T01:09:55.325Z,100202.56
2023-02-08T01:12:24.985Z,100188.94
2023-02-08T01:14:54.525Z,100188.00
2023-02-08T01:17:23.387Z,100190.69
2023-02-08T01:19:52.640Z,100195.25
2023-02-08T01:22:23.413Z,100193.63
2023-02-08T01:24:52.306Z,100186.13
2023-02-08T01:27:21.550Z,100188.56
2023-02-08T01:29:51.496Z,100184.91
2023-02-08T01:32:22.650Z,100180.56
2023-02-08T01:34:52.130Z,100182.66
2023-02-08T01:37:23.870Z,100183.59
2023-02-08T01:39:53.343Z,100186.78
2023-02-08T01:42:23.615Z,100179.22
2023-02-08T01:45:34.771Z,100178.63
2023-02-08T01:48:09.978Z,100180.31
2023-02-08T01:50:56.752Z,100182.00
2023-02-08T01:53:31.021Z,100177.75
2023-02-08T01:56:05.414Z,100174.31
2023-02-08T01:58:39.820Z,100170.19
2023-02-08T02:01:09.277Z,100170.28
2023-02-08T02:03:39.669Z,100165.06
2023-02-08T02:06:16.943Z,100176.19
2023-02-08T02:08:58.425Z,100160.59
2023-02-08T02:11:28.655Z,100158.00
2023-02-08T02:13:57.540Z,100158.13
2023-02-08T02:16:27.073Z,100149.69
2023-02-08T02:18:56.874Z,100146.25
2023-02-08T02:22:21.959Z,100158.25
2023-02-08T02:25:42.260Z,100153.13
2023-02-08T02:28:52.872Z,100148.97
2023-02-08T02:32:13.898Z,100167.72
2023-02-08T02:34:53.333Z,100153.72
2023-02-08T02:37:41.686Z,100152.09
2023-02-08T02:40:23.271Z,100157.34
2023-02-08T02:43:23.868Z,100158.88
2023-02-08T02:46:07.050Z,100162.16
2023-02-08T02:48:48.477Z,100156.91
2023-02-08T02:51:26.737Z,100161.38
2023-02-08T02:54:04.502Z,100161.50
2023-02-08T02:56:40.974Z,100159.94
2023-02-08T02:59:13.880Z,100155.03
2023-02-08T03:01:45.244Z,100155.06
2023-02-08T03:04:18.647Z,100153.97
2023-02-08T03:07:07.072Z,100149.66
2023-02-08T03:10:05.435Z,100144.56
2023-02-08T03:12:52.018Z,100139.94
2023-02-08T03:15:37.915Z,100140.88
2023-02-08T03:18:26.870Z,100136.59
2023-02-08T03:21:11.721Z,100139.97
2023-02-08T03:23:51.838Z,100133.44
2023-02-08T03:26:32.873Z,100135.13
2023-02-08T03:29:14.068Z,100135.91
2023-02-08T03:31:54.893Z,100135.06
2023-02-08T03:34:37.786Z,100137.75
2023-02-08T03:37:14.739Z,100141.16
2023-02-08T03:39:48.650Z,100149.78
2023-02-08T03:42:27.456Z,100151.38
2023-02-08T03:45:03.391Z,100152.94
2023-02-08T03:47:38.792Z,100148.09
2023-02-08T03:50:14.547Z,100154.38
2023-02-08T03:52:49.427Z,100151.56
2023-02-08T03:55:24.925Z,100153.19
2023-02-08T03:58:00.304Z,100154.06
2023-02-08T04:00:35.121Z,100152.19
2023-02-08T04:03:13.201Z,100152.25
2023-02-08T04:05:43.776Z,100155.63
2023-02-08T04:08:15.229Z,100146.34
2023-02-08T04:10:45.503Z,100147.97
2023-02-08T04:13:14.542Z,100142.06
2023-02-08T04:15:45.644Z,100148.53
2023-02-08T04:18:16.474Z,100143.63
2023-02-08T04:20:47.115Z,100137.41
2023-02-08T04:23:18.496Z,100144.34
2023-02-08T04:25:50.690Z,100137.66
2023-02-08T04:28:21.155Z,100139.97
2023-02-08T04:30:51.271Z,100135.59
2023-02-08T04:33:21.812Z,100133.44
2023-02-08T04:35:52.173Z,100131.59
2023-02-08T04:38:24.642Z,100129.13
2023-02-08T04:40:53.665Z,100137.03
2023-02-08T04:43:23.650Z,100126.59
2023-02-08T04:45:54.128Z,100119.91
2023-02-08T04:48:24.023Z,100125.00
2023-02-08T04:50:58.188Z,100119.06
2023-02-08T04:53:29.631Z,100117.44
2023-02-08T04:55:59.630Z,100121.84
2023-02-08T04:58:29.628Z,100120.34
2023-02-08T05:01:00.130Z,100119.19
2023-02-08T05:03:30.644Z,100114.25
2023-02-08T05:06:01.275Z,100118.63
2023-02-08T05:08:31.536Z,100125.41
2023-02-08T05:11:01.445Z,100117.81
2023-02-08T05:13:31.076Z,100115.88
2023-02-08T05:16:00.791Z,100114.97
2023-02-08T05:18:29.892Z,100114.16
2023-02-08T05:21:00.622Z,100112.19
2023-02-08T05:23:32.185Z,100108.56
2023-02-08T05:26:01.139Z,100106.13
2023-02-08T05:28:31.016Z,100114.66
2023-02-08T05:31:01.093Z,100113.84
2023-02-08T05:33:31.763Z,100106.22
2023-02-08T05:36:03.203Z,100107.81
2023-02-08T05:38:35.928Z,100103.56
2023-02-08T05:41:05.415Z,100113.19
2023-02-08T05:43:35.188Z,100107.41
2023-02-08T05:46:04.746Z,100108.41
2023-02-08T05:48:34.623Z,100105.03
2023-02-08T05:51:05.202Z,100109.28
2023-02-08T05:53:37.504Z,100117.19
2023-02-08T05:56:09.011Z,100120.78
2023-02-08T05:58:39.490Z,100116.34
2023-02-08T06:01:12.018Z,100117.91
2023-02-08T06:03:43.166Z,100128.47
2023-02-08T06:06:13.129Z,100126.97
2023-02-08T06:08:44.438Z,100128.78
2023-02-08T06:11:13.982Z,100127.75
2023-02-08T06:13:43.414Z,100137.06
2023-02-08T06:16:13.426Z,100129.56
2023-02-08T06:18:43.995Z,100132.28
2023-02-08T06:21:14.077Z,100137.41
2023-02-08T06:23:46.108Z,100134.72
2023-02-08T06:26:16.918Z,100136.31
2023-02-08T06:28:46.499Z,100131.19
2023-02-08T06:31:16.417Z,100127.19
2023-02-08T06:33:44.806Z,100138.25
2023-02-08T06:36:14.708Z,100136.59
2023-02-08T06:38:45.821Z,100137.53
2023-02-08T06:41:14.355Z,100143.38
2023-02-08T06:43:44.313Z,100138.38
2023-02-08T06:46:14.702Z,100134.09
2023-02-08T06:48:44.620Z,100139.13
2023-02-08T06:51:15.089Z,100144.41
2023-02-08T06:53:46.456Z,100141.88
2023-02-08T06:56:16.309Z,100147.75
2023-02-08T06:58:46.751Z,100147.72
2023-02-08T07:01:16.484Z,100146.16
2023-02-08T07:03:47.462Z,100146.13
2023-02-08T07:06:19.562Z,100149.44
2023-02-08T07:08:51.973Z,100147.88
2023-02-08T07:11:22.898Z,100151.38
2023-02-08T07:13:55.204Z,100143.66
2023-02-08T07:16:27.073Z,100141.97
2023-02-08T07:18:57.689Z,100143.81
2023-02-08T07:21:28.191Z,100142.84
2023-02-08T07:23:59.625Z,100140.31
2023-02-08T07:26:29.863Z,100137.66
2023-02-08T07:29:00.025Z,100135.09
2023-02-08T07:31:29.586Z,100131.66
2023-02-08T07:34:00.852Z,100138.34
2023-02-08T07:36:30.361Z,100141.66
2023-02-08T07:39:02.028Z,100136.47
2023-02-08T07:41:32.045Z,100141.66
2023-02-08T07:44:02.076Z,100142.44
2023-02-08T07:46:31.543Z,100131.38
2023-02-08T07:49:01.795Z,100133.84
2023-02-08T07:51:31.936Z,100126.09
2023-02-08T07:54:02.231Z,100123.53
2023-02-08T07:56:31.903Z,100125.16
2023-02-08T07:59:01.566Z,100124.19
2023-02-08T08:01:31.655Z,100127.63
2023-02-08T08:04:01.052Z,100126.66
2023-02-08T08:06:32.132Z,100124.94
2023-02-08T08:09:03.758Z,100118.03
2023-02-08T08:11:34.601Z,100122.16
2023-02-08T08:14:04.052Z,100125.41
2023-02-08T08:16:34.569Z,100124.47
2023-02-08T08:19:04.531Z,100125.22
2023-02-08T08:21:35.072Z,100120.94
2023-02-08T08:24:07.519Z,100116.56
2023-02-08T08:26:37.507Z,100122.41
2023-02-08T08:29:08.116Z,100116.34
2023-02-08T08:31:39.285Z,100117.94
2023-02-08T08:34:08.654Z,100125.41
2023-02-08T08:36:38.717Z,100124.41
2023-02-08T08:39:10.131Z,100126.78
2023-02-08T08:41:39.782Z,100125.63
2023-02-08T08:44:09.393Z,100128.72
2023-02-08T08:46:38.382Z,100128.25
2023-02-08T08:49:07.326Z,100121.16
2023-02-08T08:51:38.021Z,100120.94
2023-02-08T08:54:09.056Z,100118.97
2023-02-08T08:56:38.721Z,100115.31
2023-02-08T08:59:09.784Z,100105.69
2023-02-08T09:01:42.333Z,100111.38
2023-02-08T09:04:12.474Z,100110.34
2023-02-08T09:06:42.627Z,100106.59
2023-02-08T09:09:14.533Z,100105.47
2023-02-08T09:11:44.277Z,100096.53
2023-02-08T09:14:15.175Z,100100.53
2023-02-08T09:16:48.109Z,100106.34
2023-02-08T09:19:17.570Z,100104.41
2023-02-08T09:21:47.792Z,100100.81
2023-02-08T09:24:18.345Z,100097.19
2023-02-08T09:26:48.280Z,100103.00
2023-02-08T09:29:17.751Z,100100.34
2023-02-08T09:31:46.785Z,100107.00
2023-02-08T09:34:15.850Z,100106.03
2023-02-08T09:36:44.800Z,100101.59
2023-02-08T09:39:19.370Z,100101.44
2023-02-08T09:42:15.158Z,100097.03
2023-02-08T09:45:06.762Z,100087.47
2023-02-08T09:47:38.924Z,100090.66
2023-02-08T09:50:19.276Z,100094.72
2023-02-08T09:53:02.512Z,100085.19
2023-02-08T09:55:40.142Z,100079.06
2023-02-08T09:58:25.954Z,100081.47
2023-02-08T10:00:57.126Z,100083.75
2023-02-08T10:03:38.412Z,100085.31
2023-02-08T10:06:11.547Z,100076.66
2023-02-08T10:08:43.147Z,100080.75
2023-02-08T10:12:06.350Z,100072.88
2023-02-08T10:14:57.127Z,100071.81
2023-02-08T10:18:08.787Z,100072.53
2023-02-08T10:20:57.728Z,100071.44
2023-02-08T10:23:49.003Z,100065.19
2023-02-08T10:26:33.050Z,100061.53
2023-02-08T10:29:41.865Z,100056.19
2023-02-08T10:32:35.953Z,100058.56
2023-02-08T10:35:13.997Z,100056.56
2023-02-08T10:37:46.416Z,100046.84
2023-02-08T10:40:33.508Z,100053.47
2023-02-08T10:43:21.602Z,100054.00
2023-02-08T10:45:58.470Z,100052.06
2023-02-08T10:48:45.528Z,100049.28
2023-02-08T10:51:21.564Z,100045.66
2023-02-08T10:53:52.375Z,100043.00
2023-02-08T10:56:49.308Z,100041.91
2023-02-08T10:59:28.756Z,100042.47
2023-02-08T11:01:59.351Z,100041.19
2023-02-08T11:04:29.204Z,100040.97
2023-02-08T11:06:59.402Z,100026.09
2023-02-08T11:09:32.117Z,100031.78
2023-02-08T11:12:04.366Z,100026.44
2023-02-08T11:14:47.251Z,100027.84
2023-02-08T11:17:38.683Z,100024.09
2023-02-08T11:20:23.388Z,100016.22
2023-02-08T11:22:52.602Z,100012.44
2023-02-08T11:25:36.901Z,100014.72
2023-02-08T11:28:08.662Z,100013.66
2023-02-08T11:30:40.613Z,100022.00
2023-02-08T11:33:20.408Z,100008.91
2023-02-08T11:36:10.460Z,100009.59
2023-02-08T11:38:44.286Z,99999.13
2023-02-08T11:41:21.212Z,100000.66
2023-02-08T11:44:03.889Z,99999.66
2023-02-08T11:46:40.127Z,99991.72
2023-02-08T11:49:23.595Z,99994.97
2023-02-08T11:51:54.548Z,99997.38
2023-02-08T11:54:42.029Z,99992.91
2023-02-08T11:57:19.788Z,99991.91
2023-02-08T11:59:51.778Z,99996.88
2023-02-08T12:02:38.229Z,99997.56
2023-02-08T12:05:16.617Z,99991.34
2023-02-08T12:08:23.499Z,99995.34
2023-02-08T12:11:10.354Z,99991.84
2023-02-08T12:14:28.155Z,99991.63
2023-02-08T12:17:55.801Z,99986.16
2023-02-08T12:20:44.615Z,99977.53
2023-02-08T12:23:50.404Z,99972.19
2023-02-08T12:26:41.990Z,99970.34
2023-02-08T12:29:46.868Z,99971.03
2023-02-08T12:32:55.506Z,99965.88
2023-02-08T12:36:04.218Z,99959.75
2023-02-08T12:39:26.062Z,99956.16
2023-02-08T12:42:30.152Z,99953.50
2023-02-08T12:45:55.628Z,99935.28
2023-02-08T12:49:20.889Z,99927.41
2023-02-08T12:52:08.162Z,99928.81
2023-02-08T12:54:46.387Z,99919.00
2023-02-08T12:57:21.638Z,99913.66
2023-02-08T12:59:57.686Z,99923.81
2023-02-08T13:02:44.005Z,99919.13
2023-02-08T13:05:21.918Z,99924.81
2023-02-08T13:08:00.349Z,99925.63
2023-02-08T13:10:38.258Z,99917.81
2023-02-08T13:13:17.700Z,99923.56
2023-02-08T13:15:53.726Z,99915.66
2023-02-08T13:18:29.752Z,99915.47
2023-02-08T13:21:07.608Z,99908.47
2023-02-08T13:23:52.066Z,99915.28
2023-02-08T13:26:27.368Z,99917.03
2023-02-08T13:29:01.834Z,99904.78
2023-02-08T13:31:39.911Z,99902.81
2023-02-08T13:34:19.957Z,99894.13
2023-02-08T13:36:58.058Z,99892.31
2023-02-08T13:39:38.828Z,99888.78
2023-02-08T13:42:22.616Z,99884.38
2023-02-08T13:44:56.786Z,99882.66
2023-02-08T13:47:30.996Z,99883.38
2023-02-08T13:50:05.573Z,99881.63
2023-02-08T13:52:54.275Z,99876.47
2023-02-08T13:55:46.084Z,99874.53
2023-02-08T13:58:56.150Z,99862.72
2023-02-08T14:01:28.824Z,99865.25
2023-02-08T14:04:29.013Z,99867.63
2023-02-08T14:07:06.164Z,99857.31
2023-02-08T14:09:55.268Z,99861.63
2023-02-08T14:12:34.741Z,99857.13
2023-02-08T14:15:28.319Z,99863.19
2023-02-08T14:18:01.241Z,99867.28
2023-02-08T14:20:36.500Z,99852.63
2023-02-08T14:23:10.057Z,99861.94
2023-02-08T14:25:48.506Z,99851.41
2023-02-08T14:28:35.837Z,99852.19
2023-02-08T14:31:09.516Z,99847.75
2023-02-08T14:33:43.587Z,99856.97
2023-02-08T14:36:31.178Z,99848.13
2023-02-08T14:39:29.014Z,99850.34
2023-02-08T14:42:03.897Z,99841.31
2023-02-08T14:45:05.856Z,99839.09
2023-02-08T14:48:18.422Z,99843.91
2023-02-08T14:51:07.877Z,99844.47
2023-02-08T14:53:45.941Z,99840.66
2023-02-08T14:56:23.716Z,99842.22
2023-02-08T14:58:59.240Z,99835.94
2023-02-08T15:01:44.531Z,99832.25
2023-02-08T15:04:15.408Z,99837.22
2023-02-08T15:07:24.357Z,99835.38
2023-02-08T15:09:55.102Z,99837.03
2023-02-08T15:12:31.083Z,99835.38
2023-02-08T15:15:05.476Z,99827.63
2023-02-08T15:17:38.358Z,99824.03
2023-02-08T15:20:20.236Z,99816.19
2023-02-08T15:22:50.301Z,99817.66
2023-02-08T15:25:28.280Z,99812.69
2023-02-08T15:28:02.342Z,99816.19
2023-02-08T15:30:57.206Z,99816.47
2023-02-08T15:33:26.470Z,99804.56
2023-02-08T15:36:01.803Z,99811.59
2023-02-08T15:38:31.848Z,99808.19
2023-02-08T15:41:09.090Z,99807.53
2023-02-08T15:43:40.124Z,99813.72
2023-02-08T15:46:22.591Z,99802.50
2023-02-08T15:48:52.694Z,99795.75
2023-02-08T15:51:24.359Z,99798.72
2023-02-08T15:53:57.656Z,99788.56
2023-02-08T15:56:38.641Z,99793.81
2023-02-08T15:59:19.852Z,99790.41
2023-02-08T16:01:52.293Z,99792.97
2023-02-08T16:04:21.177Z,99788.75
2023-02-08T16:06:54.960Z,99797.50
2023-02-08T16:09:29.077Z,99792.53
2023-02-08T16:12:01.556Z,99797.16
2023-02-08T16:14:40.710Z,99791.44
2023-02-08T16:17:38.913Z,99798.91
2023-02-08T16:20:31.358Z,99796.50
2023-02-08T16:23:05.681Z,99805.53
2023-02-08T16:25:46.375Z,99807.19
2023-02-08T16:28:30.886Z,99802.06
2023-02-08T16:31:03.471Z,99802.19
2023-02-08T16:33:37.901Z,99805.25
2023-02-08T16:36:09.375Z,99806.34
2023-02-08T16:38:38.836Z,99807.06
2023-02-08T16:41:15.975Z,99813.66
2023-02-08T16:43:46.491Z,99820.91
2023-02-08T16:46:27.479Z,99813.59
2023-02-08T16:48:59.097Z,99806.81
2023-02-08T16:51:31.998Z,99809.72
2023-02-08T16:54:07.532Z,99811.00
2023-02-08T16:56:37.969Z,99815.47
2023-02-08T16:59:08.297Z,99816.28
2023-02-08T17:01:38.817Z,99811.78
2023-02-08T17:04:09.114Z,99812.13
2023-02-08T17:06:40.290Z,99810.63
2023-02-08T17:09:13.208Z,99808.97
2023-02-08T17:11:43.452Z,99808.31
2023-02-08T17:14:12.997Z,99810.50
2023-02-08T17:16:42.689Z,99804.63
2023-02-08T17:19:19.792Z,99814.25
2023-02-08T17:21:48.945Z,99813.59
2023-02-08T17:24:19.529Z,99811.50
2023-02-08T17:26:49.808Z,99807.31
2023-02-08T17:29:19.772Z,99804.06
2023-02-08T17:31:49.017Z,99812.44
2023-02-08T17:34:19.911Z,99817.41
2023-02-08T17:36:49.430Z,99816.81
2023-02-08T17:39:18.685Z,99810.91
2023-02-08T17:41:47.187Z,99811.81
2023-02-08T17:44:16.171Z,99815.31
2023-02-08T17:46:46.124Z,99816.00
2023-02-08T17:49:17.196Z,99811.25
2023-02-08T17:51:47.903Z,99813.97
2023-02-08T17:54:19.478Z,99820.16
2023-02-08T17:56:48.576Z,99818.03
2023-02-08T17:59:18.123Z,99810.81
2023-02-08T18:01:46.686Z,99815.19
2023-02-08T18:04:16.224Z,99824.03
2023-02-08T18:06:47.269Z,99815.94
2023-02-08T18:09:17.294Z,99811.47
2023-02-08T18:11:47.356Z,99815.63
2023-02-08T18:14:15.892Z,99810.50
2023-02-08T18:16:46.257Z,99806.28
2023-02-08T18:19:15.742Z,99801.72
2023-02-08T18:21:47.055Z,99814.94
2023-02-08T18:24:16.240Z,99809.13
2023-02-08T18:26:45.286Z,99812.53
2023-02-08T18:29:15.740Z,99814.88
2023-02-08T18:31:46.353Z,99818.88
2023-02-08T18:34:16.962Z,99822.06
2023-02-08T18:36:46.955Z,99816.53
2023-02-08T18:39:22.977Z,99814.03
2023-02-08T18:41:53.119Z,99811.53
2023-02-08T18:44:22.502Z,99814.88
2023-02-08T18:46:53.110Z,99809.81
2023-02-08T18:49:23.848Z,99805.72
2023-02-08T18:51:54.141Z,99809.75
2023-02-08T18:54:23.152Z,99811.69
2023-02-08T18:56:56.354Z,99816.22
2023-02-08T18:59:25.699Z,99818.13
2023-02-08T19:01:54.720Z,99814.50
2023-02-08T19:04:23.154Z,99813.88
2023-02-08T19:06:54.853Z,99814.38
2023-02-08T19:09:23.801Z,99816.66
2023-02-08T19:11:52.224Z,99813.34
2023-02-08T19:14:21.697Z,99810.91
2023-02-08T19:16:51.616Z,99811.19
2023-02-08T19:19:21.183Z,99805.44
2023-02-08T19:21:51.912Z,99806.63
2023-02-08T19:24:21.121Z,99811.78
2023-02-08T19:26:50.697Z,99806.63
2023-02-08T19:29:22.427Z,99804.06
2023-02-08T19:31:52.573Z,99815.38
2023-02-08T19:34:22.019Z,99806.94
2023-02-08T19:36:55.691Z,99807.00
2023-02-08T19:39:27.868Z,99804.50
2023-02-08T19:41:58.640Z,99807.34
2023-02-08T19:44:30.456Z,99817.06
2023-02-08T19:47:00.396Z,99810.06
2023-02-08T19:49:29.516Z,99809.44
2023-02-08T19:52:01.125Z,99814.84
2023-02-08T19:54:30.766Z,99806.09
2023-02-08T19:56:59.747Z,99807.97
2023-02-08T19:59:34.212Z,99808.91
2023-02-08T20:02:06.745Z,99804.81
2023-02-08T20:04:36.305Z,99806.69
2023-02-08T20:07:08.212Z,99805.16
2023-02-08T20:09:38.346Z,99800.16
2023-02-08T20:12:08.680Z,99802.50
2023-02-08T20:14:37.747Z,99796.13
2023-02-08T20:17:07.537Z,99803.63
2023-02-08T20:19:39.261Z,99800.44
2023-02-08T20:22:10.647Z,99798.75
2023-02-08T20:24:40.732Z,99797.22
2023-02-08T20:27:10.173Z,99800.00
2023-02-08T20:29:39.718Z,99792.16
2023-02-08T20:32:10.313Z,99793.56
2023-02-08T20:34:47.425Z,99795.09
2023-02-08T20:37:25.452Z,99788.28
2023-02-08T20:39:54.970Z,99788.09
2023-02-08T20:42:25.071Z,99790.00
2023-02-08T20:44:55.096Z,99791.75
2023-02-08T20:47:23.516Z,99794.31
2023-02-08T20:49:52.742Z,99799.44
2023-02-08T20:52:23.568Z,99791.00
2023-02-08T20:54:52.976Z,99793.69
2023-02-08T20:57:21.915Z,99793.19
2023-02-08T20:59:52.222Z,99794.34
2023-02-08T21:02:24.781Z,99787.78
2023-02-08T21:04:54.824Z,99781.81
2023-02-08T21:07:25.620Z,99788.47
2023-02-08T21:09:54.459Z,99782.09
2023-02-08T21:12:23.383Z,99787.97
2023-02-08T21:14:53.634Z,99778.56
2023-02-08T21:17:23.458Z,99779.38
2023-02-08T21:19:53.636Z,99773.75
2023-02-08T21:22:24.929Z,99778.50
2023-02-08T21:24:53.641Z,99782.47
2023-02-08T21:27:24.962Z,99772.47
2023-02-08T21:29:54.461Z,99777.53
2023-02-08T21:32:24.464Z,99774.25
2023-02-08T21:34:53.681Z,99770.94
2023-02-08T21:37:25.244Z,99768.38
2023-02-08T21:39:55.661Z,99762.38
2023-02-08T21:42:26.138Z,99755.56
2023-02-08T21:44:55.651Z,99742.00
2023-02-08T21:47:25.533Z,99748.91
2023-02-08T21:50:12.317Z,99754.25
2023-02-08T21:52:59.698Z,99751.59
2023-02-08T21:55:28.585Z,99749.88
2023-02-08T21:57:57.323Z,99748.16
2023-02-08T22:00:26.855Z,99740.66
2023-02-08T22:02:56.991Z,99737.41
2023-02-08T22:05:26.931Z,99733.16
2023-02-08T22:07:59.385Z,99732.53
2023-02-08T22:10:30.993Z,99733.56
2023-02-08T22:13:01.314Z,99737.16
2023-02-08T22:15:32.023Z,99733.75
2023-02-08T22:18:04.086Z,99734.53
2023-02-08T22:20:33.590Z,99726.84
2023-02-08T22:23:04.304Z,99726.16
2023-02-08T22:25:35.087Z,99722.31
2023-02-08T22:28:05.939Z,99722.09
2023-02-08T22:30:35.737Z,99722.53
2023-02-08T22:33:05.477Z,99723.31
2023-02-08T22:35:34.782Z,99734.28
2023-02-08T22:38:06.061Z,99727.56
2023-02-08T22:40:37.154Z,99731.84
2023-02-08T22:43:06.711Z,99724.41
2023-02-08T22:45:36.589Z,99729.97
2023-02-08T22:48:07.749Z,99728.38
2023-02-08T22:50:38.407Z,99736.34
2023-02-08T22:53:10.303Z,99728.31
2023-02-08T22:55:40.756Z,99744.44
2023-02-08T22:58:11.801Z,99734.19
2023-02-08T23:00:44.970Z,99731.63
2023-02-08T23:03:14.397Z,99735.88
2023-02-08T23:05:43.305Z,99737.25
2023-02-08T23:08:16.256Z,99738.03
2023-02-08T23:10:46.878Z,99726.78
2023-02-08T23:13:17.541Z,99732.91
2023-02-08T23:15:47.377Z,99733.75
2023-02-08T23:18:16.834Z,99733.03
2023-02-08T23:20:47.071Z,99730.84
2023-02-08T23:23:19.037Z,99742.22
2023-02-08T23:25:48.868Z,99734.41
2023-02-08T23:28:17.856Z,99737.88
2023-02-08T23:30:47.072Z,99732.50
2023-02-08T23:33:16.705Z,99743.03
2023-02-08T23:35:46.890Z,99740.09
2023-02-08T23:38:17.205Z,99742.56
2023-02-08T23:40:47.422Z,99757.28
2023-02-08T23:43:18.060Z,99742.69
2023-02-08T23:45:48.127Z,99748.88
2023-02-08T23:48:18.655Z,99735.97
2023-02-08T23:50:48.732Z,99735.81
2023-02-08T23:53:19.965Z,99736.28
2023-02-08T23:55:49.371Z,99731.28
2023-02-08T23:58:19.850Z,99727.34
